sensor_id;sensor_type;location;lat;lon;timestamp;P1;durP1;ratioP1;P2;durP2;ratioP2
78885;SDS011;68269;52.514;5.722;2023-03-03T00:02:26;12.63;;;3.92;;
78885;SDS011;68269;52.514;5.722;2023-03-03T00:04:58;12.20;;;3.90;;
78885;SDS011;68269;52.514;5.722;2023-03-03T00:07:27;14.40;;;5.10;;
78885;SDS011;68269;52.514;5.722;2023-03-03T00:09:56;13.18;;;3.90;;
78885;SDS011;68269;52.514;5.722;2023-03-03T00:12:26;9.25;;;3.33;;
78885;SDS011;68269;52.514;5.722;2023-03-03T00:14:57;9.77;;;3.33;;
78885;SDS011;68269;52.514;5.722;2023-03-03T00:17:27;10.88;;;4.05;;
78885;SDS011;68269;52.514;5.722;2023-03-03T00:20:01;14.25;;;4.93;;
78885;SDS011;68269;52.514;5.722;2023-03-03T00:22:54;10.52;;;3.97;;
78885;SDS011;68269;52.514;5.722;2023-03-03T00:25:27;10.93;;;4.05;;
78885;SDS011;68269;52.514;5.722;2023-03-03T00:27:59;13.40;;;5.13;;
78885;SDS011;68269;52.514;5.722;2023-03-03T00:30:29;12.82;;;4.47;;
78885;SDS011;68269;52.514;5.722;2023-03-03T00:32:59;13.75;;;4.90;;
78885;SDS011;68269;52.514;5.722;2023-03-03T00:35:31;12.43;;;3.92;;
78885;SDS011;68269;52.514;5.722;2023-03-03T00:38:09;10.90;;;3.40;;
78885;SDS011;68269;52.514;5.722;2023-03-03T00:40:42;15.57;;;5.75;;
78885;SDS011;68269;52.514;5.722;2023-03-03T00:43:13;14.57;;;4.25;;
78885;SDS011;68269;52.514;5.722;2023-03-03T00:45:47;13.40;;;4.32;;
78885;SDS011;68269;52.514;5.722;2023-03-03T00:48:21;13.30;;;4.65;;
78885;SDS011;68269;52.514;5.722;2023-03-03T00:50:55;14.13;;;4.45;;
78885;SDS011;68269;52.514;5.722;2023-03-03T00:53:27;11.55;;;3.78;;
78885;SDS011;68269;52.514;5.722;2023-03-03T00:55:57;16.10;;;5.05;;
78885;SDS011;68269;52.514;5.722;2023-03-03T00:58:26;13.13;;;5.40;;
78885;SDS011;68269;52.514;5.722;2023-03-03T01:00:56;15.57;;;5.13;;
78885;SDS011;68269;52.514;5.722;2023-03-03T01:03:35;12.98;;;4.70;;
78885;SDS011;68269;52.514;5.722;2023-03-03T01:06:07;16.90;;;5.55;;
78885;SDS011;68269;52.514;5.722;2023-03-03T01:08:37;13.07;;;4.88;;
78885;SDS011;68269;52.514;5.722;2023-03-03T01:11:08;14.23;;;6.88;;
78885;SDS011;68269;52.514;5.722;2023-03-03T01:13:42;12.32;;;4.70;;
78885;SDS011;68269;52.514;5.722;2023-03-03T01:16:13;16.60;;;6.20;;
78885;SDS011;68269;52.514;5.722;2023-03-03T01:18:42;14.60;;;5.05;;
78885;SDS011;68269;52.514;5.722;2023-03-03T01:21:14;19.27;;;5.38;;
78885;SDS011;68269;52.514;5.722;2023-03-03T01:23:43;18.08;;;5.28;;
78885;SDS011;68269;52.514;5.722;2023-03-03T01:26:13;15.30;;;5.50;;
78885;SDS011;68269;52.514;5.722;2023-03-03T01:28:42;13.25;;;4.95;;
78885;SDS011;68269;52.514;5.722;2023-03-03T01:31:12;14.63;;;4.50;;
78885;SDS011;68269;52.514;5.722;2023-03-03T01:33:41;13.05;;;4.38;;
78885;SDS011;68269;52.514;5.722;2023-03-03T01:36:10;11.90;;;4.47;;
78885;SDS011;68269;52.514;5.722;2023-03-03T01:38:42;12.75;;;4.32;;
78885;SDS011;68269;52.514;5.722;2023-03-03T01:41:12;18.58;;;5.60;;
78885;SDS011;68269;52.514;5.722;2023-03-03T01:43:42;15.70;;;5.75;;
78885;SDS011;68269;52.514;5.722;2023-03-03T01:46:24;15.00;;;5.82;;
78885;SDS011;68269;52.514;5.722;2023-03-03T01:49:02;14.23;;;5.43;;
78885;SDS011;68269;52.514;5.722;2023-03-03T01:51:45;17.63;;;5.90;;
78885;SDS011;68269;52.514;5.722;2023-03-03T01:54:19;14.85;;;4.72;;
78885;SDS011;68269;52.514;5.722;2023-03-03T01:56:53;13.15;;;4.32;;
78885;SDS011;68269;52.514;5.722;2023-03-03T01:59:27;14.57;;;3.80;;
78885;SDS011;68269;52.514;5.722;2023-03-03T02:01:59;12.85;;;5.10;;
78885;SDS011;68269;52.514;5.722;2023-03-03T02:04:28;12.63;;;3.95;;
78885;SDS011;68269;52.514;5.722;2023-03-03T02:07:01;10.68;;;3.75;;
78885;SDS011;68269;52.514;5.722;2023-03-03T02:09:37;18.42;;;4.88;;
78885;SDS011;68269;52.514;5.722;2023-03-03T02:12:16;13.15;;;5.85;;
78885;SDS011;68269;52.514;5.722;2023-03-03T02:14:47;15.13;;;4.60;;
78885;SDS011;68269;52.514;5.722;2023-03-03T02:17:17;13.90;;;4.50;;
78885;SDS011;68269;52.514;5.722;2023-03-03T02:19:49;14.93;;;4.25;;
78885;SDS011;68269;52.514;5.722;2023-03-03T02:22:25;11.50;;;4.30;;
78885;SDS011;68269;52.514;5.722;2023-03-03T02:25:05;14.18;;;5.05;;
78885;SDS011;68269;52.514;5.722;2023-03-03T02:27:41;12.05;;;4.63;;
78885;SDS011;68269;52.514;5.722;2023-03-03T02:30:13;15.32;;;4.85;;
78885;SDS011;68269;52.514;5.722;2023-03-03T02:32:44;19.30;;;4.45;;
78885;SDS011;68269;52.514;5.722;2023-03-03T02:35:30;17.40;;;5.93;;
78885;SDS011;68269;52.514;5.722;2023-03-03T02:38:10;14.68;;;4.60;;
78885;SDS011;68269;52.514;5.722;2023-03-03T02:40:48;14.18;;;4.95;;
78885;SDS011;68269;52.514;5.722;2023-03-03T02:43:30;16.35;;;5.10;;
78885;SDS011;68269;52.514;5.722;2023-03-03T02:46:07;14.07;;;4.90;;
78885;SDS011;68269;52.514;5.722;2023-03-03T02:48:36;13.27;;;5.10;;
78885;SDS011;68269;52.514;5.722;2023-03-03T02:51:06;12.68;;;5.18;;
78885;SDS011;68269;52.514;5.722;2023-03-03T02:53:35;16.75;;;5.65;;
78885;SDS011;68269;52.514;5.722;2023-03-03T02:56:05;17.05;;;6.15;;
78885;SDS011;68269;52.514;5.722;2023-03-03T02:58:38;14.88;;;4.80;;
78885;SDS011;68269;52.514;5.722;2023-03-03T03:01:07;13.02;;;4.60;;
78885;SDS011;68269;52.514;5.722;2023-03-03T03:03:37;13.20;;;4.72;;
78885;SDS011;68269;52.514;5.722;2023-03-03T03:06:07;12.90;;;4.47;;
78885;SDS011;68269;52.514;5.722;2023-03-03T03:08:36;11.60;;;4.05;;
78885;SDS011;68269;52.514;5.722;2023-03-03T03:11:05;15.50;;;4.70;;
78885;SDS011;68269;52.514;5.722;2023-03-03T03:13:37;17.35;;;5.60;;
78885;SDS011;68269;52.514;5.722;2023-03-03T03:16:07;17.08;;;5.57;;
78885;SDS011;68269;52.514;5.722;2023-03-03T03:18:36;17.85;;;4.68;;
78885;SDS011;68269;52.514;5.722;2023-03-03T03:21:06;16.00;;;5.15;;
78885;SDS011;68269;52.514;5.722;2023-03-03T03:23:38;17.60;;;5.13;;
78885;SDS011;68269;52.514;5.722;2023-03-03T03:26:08;15.52;;;5.68;;
78885;SDS011;68269;52.514;5.722;2023-03-03T03:28:41;14.70;;;5.10;;
78885;SDS011;68269;52.514;5.722;2023-03-03T03:31:11;15.02;;;4.65;;
78885;SDS011;68269;52.514;5.722;2023-03-03T03:33:40;15.00;;;4.57;;
78885;SDS011;68269;52.514;5.722;2023-03-03T03:36:10;12.23;;;4.38;;
78885;SDS011;68269;52.514;5.722;2023-03-03T03:38:40;17.60;;;4.68;;
78885;SDS011;68269;52.514;5.722;2023-03-03T03:41:11;15.13;;;5.60;;
78885;SDS011;68269;52.514;5.722;2023-03-03T03:43:44;13.60;;;3.80;;
78885;SDS011;68269;52.514;5.722;2023-03-03T03:46:14;11.63;;;4.07;;
78885;SDS011;68269;52.514;5.722;2023-03-03T03:48:43;10.25;;;3.47;;
78885;SDS011;68269;52.514;5.722;2023-03-03T03:51:16;10.32;;;3.53;;
78885;SDS011;68269;52.514;5.722;2023-03-03T03:53:45;10.60;;;3.38;;
78885;SDS011;68269;52.514;5.722;2023-03-03T03:56:15;15.95;;;4.55;;
78885;SDS011;68269;52.514;5.722;2023-03-03T03:58:50;10.35;;;3.47;;
78885;SDS011;68269;52.514;5.722;2023-03-03T04:01:19;16.17;;;3.55;;
78885;SDS011;68269;52.514;5.722;2023-03-03T04:03:50;13.05;;;3.47;;
78885;SDS011;68269;52.514;5.722;2023-03-03T04:06:22;15.32;;;4.03;;
78885;SDS011;68269;52.514;5.722;2023-03-03T04:08:52;7.80;;;3.22;;
78885;SDS011;68269;52.514;5.722;2023-03-03T04:11:24;15.15;;;3.50;;
78885;SDS011;68269;52.514;5.722;2023-03-03T04:13:56;10.95;;;3.17;;
78885;SDS011;68269;52.514;5.722;2023-03-03T04:16:26;11.65;;;3.08;;
78885;SDS011;68269;52.514;5.722;2023-03-03T04:18:55;9.98;;;2.63;;
78885;SDS011;68269;52.514;5.722;2023-03-03T04:21:25;13.02;;;4.22;;
78885;SDS011;68269;52.514;5.722;2023-03-03T04:23:58;8.45;;;2.70;;
78885;SDS011;68269;52.514;5.722;2023-03-03T04:26:28;12.45;;;4.22;;
78885;SDS011;68269;52.514;5.722;2023-03-03T04:29:03;13.05;;;3.92;;
78885;SDS011;68269;52.514;5.722;2023-03-03T04:31:32;15.35;;;5.28;;
78885;SDS011;68269;52.514;5.722;2023-03-03T04:34:04;10.10;;;3.17;;
78885;SDS011;68269;52.514;5.722;2023-03-03T04:36:34;10.25;;;2.45;;
78885;SDS011;68269;52.514;5.722;2023-03-03T04:39:04;11.90;;;3.40;;
78885;SDS011;68269;52.514;5.722;2023-03-03T04:41:33;9.30;;;2.60;;
78885;SDS011;68269;52.514;5.722;2023-03-03T04:44:06;13.10;;;3.55;;
78885;SDS011;68269;52.514;5.722;2023-03-03T04:46:35;10.90;;;3.20;;
78885;SDS011;68269;52.514;5.722;2023-03-03T04:49:04;9.20;;;2.90;;
78885;SDS011;68269;52.514;5.722;2023-03-03T04:51:35;10.95;;;3.78;;
78885;SDS011;68269;52.514;5.722;2023-03-03T04:54:05;13.05;;;3.55;;
78885;SDS011;68269;52.514;5.722;2023-03-03T04:56:34;15.00;;;3.70;;
78885;SDS011;68269;52.514;5.722;2023-03-03T04:59:06;9.77;;;2.88;;
78885;SDS011;68269;52.514;5.722;2023-03-03T05:01:36;10.18;;;3.67;;
78885;SDS011;68269;52.514;5.722;2023-03-03T05:04:06;8.73;;;2.55;;
78885;SDS011;68269;52.514;5.722;2023-03-03T05:06:35;9.02;;;2.65;;
78885;SDS011;68269;52.514;5.722;2023-03-03T05:09:05;7.88;;;1.85;;
78885;SDS011;68269;52.514;5.722;2023-03-03T05:11:34;10.60;;;2.22;;
78885;SDS011;68269;52.514;5.722;2023-03-03T05:14:06;8.68;;;3.08;;
78885;SDS011;68269;52.514;5.722;2023-03-03T05:16:36;9.85;;;2.90;;
78885;SDS011;68269;52.514;5.722;2023-03-03T05:19:05;9.95;;;3.53;;
78885;SDS011;68269;52.514;5.722;2023-03-03T05:21:35;20.45;;;3.90;;
78885;SDS011;68269;52.514;5.722;2023-03-03T05:24:07;7.70;;;2.35;;
78885;SDS011;68269;52.514;5.722;2023-03-03T05:26:37;10.75;;;3.17;;
78885;SDS011;68269;52.514;5.722;2023-03-03T05:29:09;9.50;;;2.95;;
78885;SDS011;68269;52.514;5.722;2023-03-03T05:31:38;8.40;;;2.50;;
78885;SDS011;68269;52.514;5.722;2023-03-03T05:34:07;7.43;;;2.28;;
78885;SDS011;68269;52.514;5.722;2023-03-03T05:36:37;10.40;;;2.95;;
78885;SDS011;68269;52.514;5.722;2023-03-03T05:39:06;11.48;;;3.78;;
78885;SDS011;68269;52.514;5.722;2023-03-03T05:41:35;10.55;;;2.33;;
78885;SDS011;68269;52.514;5.722;2023-03-03T05:44:05;13.43;;;2.75;;
78885;SDS011;68269;52.514;5.722;2023-03-03T05:46:37;11.52;;;2.75;;
78885;SDS011;68269;52.514;5.722;2023-03-03T05:49:07;8.50;;;3.05;;
78885;SDS011;68269;52.514;5.722;2023-03-03T05:51:36;13.32;;;3.15;;
78885;SDS011;68269;52.514;5.722;2023-03-03T05:54:05;10.30;;;2.47;;
78885;SDS011;68269;52.514;5.722;2023-03-03T05:56:35;7.45;;;2.17;;
78885;SDS011;68269;52.514;5.722;2023-03-03T05:59:04;6.53;;;1.58;;
78885;SDS011;68269;52.514;5.722;2023-03-03T06:01:33;7.28;;;2.17;;
78885;SDS011;68269;52.514;5.722;2023-03-03T06:04:05;7.78;;;2.22;;
78885;SDS011;68269;52.514;5.722;2023-03-03T06:06:34;7.53;;;2.53;;
78885;SDS011;68269;52.514;5.722;2023-03-03T06:09:04;8.98;;;2.95;;
78885;SDS011;68269;52.514;5.722;2023-03-03T06:11:33;11.02;;;2.65;;
78885;SDS011;68269;52.514;5.722;2023-03-03T06:14:03;12.93;;;2.75;;
78885;SDS011;68269;52.514;5.722;2023-03-03T06:16:32;10.13;;;3.10;;
78885;SDS011;68269;52.514;5.722;2023-03-03T06:19:05;10.10;;;2.60;;
78885;SDS011;68269;52.514;5.722;2023-03-03T06:21:34;7.40;;;2.80;;
78885;SDS011;68269;52.514;5.722;2023-03-03T06:24:03;7.47;;;2.30;;
78885;SDS011;68269;52.514;5.722;2023-03-03T06:26:33;14.05;;;1.83;;
78885;SDS011;68269;52.514;5.722;2023-03-03T06:29:03;13.60;;;3.35;;
78885;SDS011;68269;52.514;5.722;2023-03-03T06:31:32;8.25;;;2.17;;
78885;SDS011;68269;52.514;5.722;2023-03-03T06:34:01;8.55;;;2.33;;
78885;SDS011;68269;52.514;5.722;2023-03-03T06:36:33;6.65;;;2.45;;
78885;SDS011;68269;52.514;5.722;2023-03-03T06:39:03;5.90;;;1.52;;
78885;SDS011;68269;52.514;5.722;2023-03-03T06:41:32;12.73;;;2.40;;
78885;SDS011;68269;52.514;5.722;2023-03-03T06:44:02;9.45;;;2.33;;
78885;SDS011;68269;52.514;5.722;2023-03-03T06:46:31;8.55;;;2.17;;
78885;SDS011;68269;52.514;5.722;2023-03-03T06:49:00;9.45;;;2.28;;
78885;SDS011;68269;52.514;5.722;2023-03-03T06:51:33;10.02;;;2.85;;
78885;SDS011;68269;52.514;5.722;2023-03-03T06:54:08;12.02;;;3.20;;
78885;SDS011;68269;52.514;5.722;2023-03-03T06:56:40;7.07;;;2.28;;
78885;SDS011;68269;52.514;5.722;2023-03-03T06:59:11;7.70;;;2.50;;
78885;SDS011;68269;52.514;5.722;2023-03-03T07:01:42;14.07;;;2.25;;
78885;SDS011;68269;52.514;5.722;2023-03-03T07:04:13;6.38;;;2.55;;
78885;SDS011;68269;52.514;5.722;2023-03-03T07:06:52;7.65;;;2.80;;
78885;SDS011;68269;52.514;5.722;2023-03-03T07:09:24;9.40;;;2.78;;
78885;SDS011;68269;52.514;5.722;2023-03-03T07:11:55;6.03;;;1.90;;
78885;SDS011;68269;52.514;5.722;2023-03-03T07:14:28;5.68;;;1.45;;
78885;SDS011;68269;52.514;5.722;2023-03-03T07:16:59;5.03;;;1.30;;
78885;SDS011;68269;52.514;5.722;2023-03-03T07:19:33;7.97;;;1.77;;
78885;SDS011;68269;52.514;5.722;2023-03-03T07:22:11;3.92;;;1.00;;
78885;SDS011;68269;52.514;5.722;2023-03-03T07:24:44;4.43;;;1.38;;
78885;SDS011;68269;52.514;5.722;2023-03-03T07:27:16;4.35;;;1.50;;
78885;SDS011;68269;52.514;5.722;2023-03-03T07:29:51;6.82;;;1.70;;
78885;SDS011;68269;52.514;5.722;2023-03-03T07:32:24;4.85;;;1.33;;
78885;SDS011;68269;52.514;5.722;2023-03-03T07:34:55;6.65;;;2.03;;
78885;SDS011;68269;52.514;5.722;2023-03-03T07:37:33;7.28;;;1.58;;
78885;SDS011;68269;52.514;5.722;2023-03-03T07:40:05;4.53;;;1.50;;
78885;SDS011;68269;52.514;5.722;2023-03-03T07:42:56;7.38;;;1.45;;
78885;SDS011;68269;52.514;5.722;2023-03-03T07:45:33;4.53;;;0.88;;
78885;SDS011;68269;52.514;5.722;2023-03-03T07:48:07;5.78;;;1.42;;
78885;SDS011;68269;52.514;5.722;2023-03-03T07:50:46;3.88;;;1.50;;
78885;SDS011;68269;52.514;5.722;2023-03-03T07:53:21;4.68;;;1.40;;
78885;SDS011;68269;52.514;5.722;2023-03-03T07:55:55;4.28;;;1.45;;
78885;SDS011;68269;52.514;5.722;2023-03-03T07:58:30;5.07;;;2.05;;
78885;SDS011;68269;52.514;5.722;2023-03-03T08:03:59;5.63;;;1.55;;
78885;SDS011;68269;52.514;5.722;2023-03-03T08:06:41;5.43;;;2.03;;
78885;SDS011;68269;52.514;5.722;2023-03-03T08:09:28;5.15;;;1.67;;
78885;SDS011;68269;52.514;5.722;2023-03-03T08:12:17;3.45;;;1.17;;
78885;SDS011;68269;52.514;5.722;2023-03-03T08:15:11;7.30;;;1.30;;
78885;SDS011;68269;52.514;5.722;2023-03-03T08:17:45;3.47;;;1.08;;
78885;SDS011;68269;52.514;5.722;2023-03-03T08:23:16;6.63;;;1.73;;
78885;SDS011;68269;52.514;5.722;2023-03-03T08:25:49;5.95;;;1.63;;
78885;SDS011;68269;52.514;5.722;2023-03-03T08:28:19;4.22;;;1.50;;
78885;SDS011;68269;52.514;5.722;2023-03-03T08:30:49;4.18;;;1.40;;
78885;SDS011;68269;52.514;5.722;2023-03-03T08:33:19;5.32;;;1.95;;
78885;SDS011;68269;52.514;5.722;2023-03-03T08:35:48;4.47;;;1.48;;
78885;SDS011;68269;52.514;5.722;2023-03-03T08:38:19;11.63;;;1.90;;
78885;SDS011;68269;52.514;5.722;2023-03-03T08:40:51;7.75;;;1.65;;
78885;SDS011;68269;52.514;5.722;2023-03-03T08:43:20;5.35;;;1.40;;
78885;SDS011;68269;52.514;5.722;2023-03-03T08:45:50;5.43;;;1.73;;
78885;SDS011;68269;52.514;5.722;2023-03-03T08:48:21;5.72;;;1.50;;
78885;SDS011;68269;52.514;5.722;2023-03-03T08:50:50;5.45;;;1.60;;
78885;SDS011;68269;52.514;5.722;2023-03-03T08:53:20;5.68;;;2.08;;
78885;SDS011;68269;52.514;5.722;2023-03-03T08:55:53;4.68;;;1.60;;
78885;SDS011;68269;52.514;5.722;2023-03-03T08:58:26;4.47;;;1.42;;
78885;SDS011;68269;52.514;5.722;2023-03-03T09:00:55;4.38;;;1.30;;
78885;SDS011;68269;52.514;5.722;2023-03-03T09:03:25;6.82;;;1.20;;
78885;SDS011;68269;52.514;5.722;2023-03-03T09:05:54;4.63;;;1.50;;
78885;SDS011;68269;52.514;5.722;2023-03-03T09:08:24;5.95;;;1.73;;
78885;SDS011;68269;52.514;5.722;2023-03-03T09:10:56;5.82;;;1.60;;
78885;SDS011;68269;52.514;5.722;2023-03-03T09:13:27;6.60;;;1.70;;
78885;SDS011;68269;52.514;5.722;2023-03-03T09:15:57;6.60;;;1.63;;
78885;SDS011;68269;52.514;5.722;2023-03-03T09:18:29;4.75;;;1.25;;
78885;SDS011;68269;52.514;5.722;2023-03-03T09:21:05;4.70;;;1.70;;
78885;SDS011;68269;52.514;5.722;2023-03-03T09:23:49;5.47;;;1.50;;
78885;SDS011;68269;52.514;5.722;2023-03-03T09:26:25;6.47;;;1.98;;
78885;SDS011;68269;52.514;5.722;2023-03-03T09:29:05;5.50;;;1.90;;
78885;SDS011;68269;52.514;5.722;2023-03-03T09:31:47;6.82;;;1.90;;
78885;SDS011;68269;52.514;5.722;2023-03-03T09:34:20;5.38;;;1.42;;
78885;SDS011;68269;52.514;5.722;2023-03-03T09:36:52;7.22;;;1.88;;
78885;SDS011;68269;52.514;5.722;2023-03-03T09:39:25;7.45;;;1.88;;
78885;SDS011;68269;52.514;5.722;2023-03-03T09:51:17;8.02;;;2.00;;
78885;SDS011;68269;52.514;5.722;2023-03-03T09:54:09;5.47;;;1.45;;
78885;SDS011;68269;52.514;5.722;2023-03-03T09:56:48;4.28;;;1.02;;
78885;SDS011;68269;52.514;5.722;2023-03-03T09:59:33;9.10;;;1.27;;
78885;SDS011;68269;52.514;5.722;2023-03-03T10:02:15;5.78;;;1.52;;
78885;SDS011;68269;52.514;5.722;2023-03-03T10:05:01;7.15;;;1.85;;
78885;SDS011;68269;52.514;5.722;2023-03-03T10:07:42;5.55;;;1.77;;
78885;SDS011;68269;52.514;5.722;2023-03-03T10:10:38;4.85;;;0.82;;
78885;SDS011;68269;52.514;5.722;2023-03-03T10:13:25;5.63;;;1.25;;
78885;SDS011;68269;52.514;5.722;2023-03-03T10:16:24;4.25;;;1.52;;
78885;SDS011;68269;52.514;5.722;2023-03-03T10:19:10;5.22;;;1.30;;
78885;SDS011;68269;52.514;5.722;2023-03-03T10:21:49;6.03;;;1.73;;
78885;SDS011;68269;52.514;5.722;2023-03-03T10:24:25;7.50;;;1.20;;
78885;SDS011;68269;52.514;5.722;2023-03-03T10:27:04;5.68;;;1.30;;
78885;SDS011;68269;52.514;5.722;2023-03-03T10:29:45;4.75;;;2.30;;
78885;SDS011;68269;52.514;5.722;2023-03-03T10:32:31;5.97;;;1.60;;
78885;SDS011;68269;52.514;5.722;2023-03-03T10:38:20;3.08;;;0.77;;
78885;SDS011;68269;52.514;5.722;2023-03-03T10:40:58;5.95;;;2.00;;
78885;SDS011;68269;52.514;5.722;2023-03-03T10:43:41;7.82;;;1.08;;
78885;SDS011;68269;52.514;5.722;2023-03-03T10:46:30;6.47;;;1.17;;
78885;SDS011;68269;52.514;5.722;2023-03-03T10:49:21;2.55;;;0.90;;
78885;SDS011;68269;52.514;5.722;2023-03-03T10:52:08;4.53;;;0.93;;
78885;SDS011;68269;52.514;5.722;2023-03-03T10:54:52;5.63;;;1.20;;
78885;SDS011;68269;52.514;5.722;2023-03-03T10:57:36;3.22;;;0.98;;
78885;SDS011;68269;52.514;5.722;2023-03-03T11:00:15;3.10;;;0.75;;
78885;SDS011;68269;52.514;5.722;2023-03-03T11:02:56;1.95;;;0.70;;
78885;SDS011;68269;52.514;5.722;2023-03-03T11:06:04;4.10;;;0.73;;
78885;SDS011;68269;52.514;5.722;2023-03-03T11:08:40;12.68;;;1.58;;
78885;SDS011;68269;52.514;5.722;2023-03-03T11:11:15;4.55;;;1.05;;
78885;SDS011;68269;52.514;5.722;2023-03-03T11:13:50;2.63;;;1.10;;
78885;SDS011;68269;52.514;5.722;2023-03-03T11:16:30;4.63;;;1.05;;
78885;SDS011;68269;52.514;5.722;2023-03-03T11:19:12;2.45;;;0.77;;
78885;SDS011;68269;52.514;5.722;2023-03-03T11:22:08;2.22;;;0.73;;
78885;SDS011;68269;52.514;5.722;2023-03-03T11:24:49;2.08;;;0.88;;
78885;SDS011;68269;52.514;5.722;2023-03-03T11:27:31;1.85;;;0.60;;
78885;SDS011;68269;52.514;5.722;2023-03-03T11:30:24;6.55;;;0.70;;
78885;SDS011;68269;52.514;5.722;2023-03-03T11:33:05;2.35;;;0.52;;
78885;SDS011;68269;52.514;5.722;2023-03-03T11:35:40;2.63;;;0.70;;
78885;SDS011;68269;52.514;5.722;2023-03-03T11:38:26;1.95;;;0.65;;
78885;SDS011;68269;52.514;5.722;2023-03-03T11:41:15;2.65;;;0.90;;
78885;SDS011;68269;52.514;5.722;2023-03-03T11:43:54;4.72;;;1.00;;
78885;SDS011;68269;52.514;5.722;2023-03-03T11:46:29;1.58;;;0.60;;
78885;SDS011;68269;52.514;5.722;2023-03-03T11:49:02;1.60;;;0.47;;
78885;SDS011;68269;52.514;5.722;2023-03-03T11:51:39;2.10;;;0.77;;
78885;SDS011;68269;52.514;5.722;2023-03-03T11:54:17;4.05;;;0.90;;
78885;SDS011;68269;52.514;5.722;2023-03-03T11:56:51;1.58;;;0.55;;
78885;SDS011;68269;52.514;5.722;2023-03-03T11:59:33;1.58;;;0.40;;
78885;SDS011;68269;52.514;5.722;2023-03-03T12:02:20;3.15;;;0.82;;
78885;SDS011;68269;52.514;5.722;2023-03-03T12:05:09;2.72;;;0.80;;
78885;SDS011;68269;52.514;5.722;2023-03-03T12:07:46;1.88;;;0.60;;
78885;SDS011;68269;52.514;5.722;2023-03-03T12:10:26;6.40;;;0.57;;
78885;SDS011;68269;52.514;5.722;2023-03-03T12:13:01;3.78;;;1.30;;
78885;SDS011;68269;52.514;5.722;2023-03-03T12:15:37;1.52;;;0.60;;
78885;SDS011;68269;52.514;5.722;2023-03-03T12:18:26;0.88;;;0.30;;
78885;SDS011;68269;52.514;5.722;2023-03-03T12:21:31;2.08;;;0.57;;
78885;SDS011;68269;52.514;5.722;2023-03-03T12:24:20;3.78;;;0.70;;
78885;SDS011;68269;52.514;5.722;2023-03-03T12:27:04;3.53;;;0.80;;
78885;SDS011;68269;52.514;5.722;2023-03-03T12:29:42;2.47;;;0.68;;
78885;SDS011;68269;52.514;5.722;2023-03-03T12:32:22;1.52;;;0.40;;
78885;SDS011;68269;52.514;5.722;2023-03-03T12:35:01;4.18;;;0.75;;
78885;SDS011;68269;52.514;5.722;2023-03-03T12:37:45;2.05;;;0.52;;
78885;SDS011;68269;52.514;5.722;2023-03-03T12:40:23;1.20;;;0.57;;
78885;SDS011;68269;52.514;5.722;2023-03-03T12:43:11;0.68;;;0.40;;
78885;SDS011;68269;52.514;5.722;2023-03-03T12:45:49;3.55;;;0.68;;
78885;SDS011;68269;52.514;5.722;2023-03-03T12:48:28;3.17;;;0.60;;
78885;SDS011;68269;52.514;5.722;2023-03-03T12:51:09;3.42;;;0.93;;
78885;SDS011;68269;52.514;5.722;2023-03-03T12:53:55;3.30;;;0.65;;
78885;SDS011;68269;52.514;5.722;2023-03-03T12:56:44;2.13;;;0.50;;
78885;SDS011;68269;52.514;5.722;2023-03-03T12:59:24;2.60;;;0.60;;
78885;SDS011;68269;52.514;5.722;2023-03-03T13:02:05;1.30;;;0.50;;
78885;SDS011;68269;52.514;5.722;2023-03-03T13:04:54;2.83;;;0.60;;
78885;SDS011;68269;52.514;5.722;2023-03-03T13:07:30;2.65;;;0.52;;
78885;SDS011;68269;52.514;5.722;2023-03-03T13:10:08;0.43;;;0.22;;
78885;SDS011;68269;52.514;5.722;2023-03-03T13:12:44;6.47;;;0.52;;
78885;SDS011;68269;52.514;5.722;2023-03-03T13:15:22;1.23;;;0.40;;
78885;SDS011;68269;52.514;5.722;2023-03-03T13:17:58;2.10;;;0.60;;
78885;SDS011;68269;52.514;5.722;2023-03-03T13:20:44;3.38;;;0.60;;
78885;SDS011;68269;52.514;5.722;2023-03-03T13:23:21;1.52;;;0.50;;
78885;SDS011;68269;52.514;5.722;2023-03-03T13:26:14;5.32;;;0.90;;
78885;SDS011;68269;52.514;5.722;2023-03-03T13:31:44;2.95;;;0.50;;
78885;SDS011;68269;52.514;5.722;2023-03-03T13:34:20;1.17;;;0.40;;
78885;SDS011;68269;52.514;5.722;2023-03-03T13:37:04;1.27;;;0.32;;
78885;SDS011;68269;52.514;5.722;2023-03-03T13:39:51;1.65;;;0.50;;
78885;SDS011;68269;52.514;5.722;2023-03-03T13:42:27;2.38;;;0.50;;
78885;SDS011;68269;52.514;5.722;2023-03-03T13:45:06;2.35;;;0.40;;
78885;SDS011;68269;52.514;5.722;2023-03-03T13:47:49;0.60;;;0.20;;
78885;SDS011;68269;52.514;5.722;2023-03-03T13:50:25;2.22;;;0.47;;
78885;SDS011;68269;52.514;5.722;2023-03-03T13:53:06;1.25;;;0.40;;
78885;SDS011;68269;52.514;5.722;2023-03-03T13:55:52;0.70;;;0.30;;
78885;SDS011;68269;52.514;5.722;2023-03-03T13:58:32;3.50;;;0.35;;
78885;SDS011;68269;52.514;5.722;2023-03-03T14:01:12;0.85;;;0.30;;
78885;SDS011;68269;52.514;5.722;2023-03-03T14:06:33;3.88;;;0.43;;
78885;SDS011;68269;52.514;5.722;2023-03-03T14:09:06;0.35;;;0.13;;
78885;SDS011;68269;52.514;5.722;2023-03-03T14:11:45;1.10;;;0.40;;
78885;SDS011;68269;52.514;5.722;2023-03-03T14:14:20;2.47;;;0.50;;
78885;SDS011;68269;52.514;5.722;2023-03-03T14:17:01;1.77;;;0.57;;
78885;SDS011;68269;52.514;5.722;2023-03-03T14:19:39;1.13;;;0.30;;
78885;SDS011;68269;52.514;5.722;2023-03-03T14:22:15;4.88;;;0.60;;
78885;SDS011;68269;52.514;5.722;2023-03-03T14:27:38;1.90;;;0.30;;
78885;SDS011;68269;52.514;5.722;2023-03-03T14:30:25;2.25;;;0.30;;
78885;SDS011;68269;52.514;5.722;2023-03-03T14:33:00;1.50;;;0.50;;
78885;SDS011;68269;52.514;5.722;2023-03-03T14:35:36;1.27;;;0.57;;
78885;SDS011;68269;52.514;5.722;2023-03-03T14:38:09;5.55;;;1.23;;
78885;SDS011;68269;52.514;5.722;2023-03-03T14:40:42;1.17;;;0.30;;
78885;SDS011;68269;52.514;5.722;2023-03-03T14:43:19;1.98;;;0.43;;
78885;SDS011;68269;52.514;5.722;2023-03-03T14:45:52;3.65;;;0.45;;
78885;SDS011;68269;52.514;5.722;2023-03-03T14:48:22;1.17;;;0.17;;
78885;SDS011;68269;52.514;5.722;2023-03-03T14:50:56;0.88;;;0.30;;
78885;SDS011;68269;52.514;5.722;2023-03-03T14:53:30;2.38;;;0.35;;
78885;SDS011;68269;52.514;5.722;2023-03-03T14:56:20;1.45;;;0.40;;
78885;SDS011;68269;52.514;5.722;2023-03-03T14:58:50;0.65;;;0.15;;
78885;SDS011;68269;52.514;5.722;2023-03-03T15:01:22;2.85;;;0.82;;
78885;SDS011;68269;52.514;5.722;2023-03-03T15:03:59;6.88;;;1.35;;
78885;SDS011;68269;52.514;5.722;2023-03-03T15:06:37;1.52;;;0.40;;
78885;SDS011;68269;52.514;5.722;2023-03-03T15:11:57;7.80;;;1.75;;
78885;SDS011;68269;52.514;5.722;2023-03-03T15:14:29;8.02;;;0.95;;
78885;SDS011;68269;52.514;5.722;2023-03-03T15:17:19;1.42;;;0.30;;
78885;SDS011;68269;52.514;5.722;2023-03-03T15:20:02;4.07;;;0.68;;
78885;SDS011;68269;52.514;5.722;2023-03-03T15:22:53;2.90;;;0.77;;
78885;SDS011;68269;52.514;5.722;2023-03-03T15:25:27;2.60;;;0.50;;
78885;SDS011;68269;52.514;5.722;2023-03-03T15:28:07;0.88;;;0.20;;
78885;SDS011;68269;52.514;5.722;2023-03-03T15:30:49;3.63;;;0.45;;
78885;SDS011;68269;52.514;5.722;2023-03-03T15:33:24;3.90;;;1.40;;
78885;SDS011;68269;52.514;5.722;2023-03-03T15:36:00;3.42;;;0.82;;
78885;SDS011;68269;52.514;5.722;2023-03-03T15:38:40;2.00;;;0.40;;
78885;SDS011;68269;52.514;5.722;2023-03-03T15:41:20;2.45;;;0.73;;
78885;SDS011;68269;52.514;5.722;2023-03-03T15:44:04;2.25;;;0.40;;
78885;SDS011;68269;52.514;5.722;2023-03-03T15:46:43;3.85;;;0.60;;
78885;SDS011;68269;52.514;5.722;2023-03-03T15:49:32;5.10;;;0.80;;
78885;SDS011;68269;52.514;5.722;2023-03-03T15:52:32;3.90;;;1.20;;
78885;SDS011;68269;52.514;5.722;2023-03-03T15:55:27;7.13;;;1.08;;
78885;SDS011;68269;52.514;5.722;2023-03-03T15:58:17;3.83;;;1.05;;
78885;SDS011;68269;52.514;5.722;2023-03-03T16:01:09;4.68;;;1.00;;
78885;SDS011;68269;52.514;5.722;2023-03-03T16:03:45;4.10;;;0.60;;